createdAt,value
2019-04-20T00:01:32.049Z,7.28
2019-04-20T00:05:05.225Z,7.76
2019-04-20T00:08:38.217Z,10.09
2019-04-20T00:12:18.052Z,5.89
2019-04-20T00:15:53.618Z,2.61
2019-04-20T00:19:33.683Z,9.93
2019-04-20T00:23:24.966Z,9.24
2019-04-20T00:27:30.212Z,10.82
2019-04-20T00:31:29.781Z,9.3
2019-04-20T00:35:06.303Z,9.14
2019-04-20T00:38:42.618Z,4.14
2019-04-20T00:42:19.851Z,5.49
2019-04-20T00:46:06.337Z,7.55
2019-04-20T00:49:55.071Z,8.76
2019-04-20T00:53:39.731Z,9.85
2019-04-20T00:57:24.464Z,9.28
2019-04-20T01:00:32.806Z,6.61
2019-04-20T01:04:37.750Z,6.81
2019-04-20T01:08:27.388Z,7.27
2019-04-20T01:11:58.579Z,3.96
2019-04-20T01:15:38.637Z,9.96
2019-04-20T01:19:15.935Z,11.69
2019-04-20T01:22:54.650Z,8.04
2019-04-20T01:26:31.265Z,4.69
2019-04-20T01:30:11.734Z,3.95
2019-04-20T01:33:56.560Z,3.73
2019-04-20T01:37:45.493Z,6.84
2019-04-20T01:41:30.763Z,7.31
2019-04-20T01:45:05.547Z,7.66
2019-04-20T01:48:41.574Z,10.16
2019-04-20T01:52:20.062Z,6.4
2019-04-20T01:56:14.962Z,11.82
2019-04-20T02:02:29.152Z,6.95
2019-04-20T02:06:03.565Z,4.24
2019-04-20T02:09:45.590Z,5.69
2019-04-20T02:13:21.545Z,9.84
2019-04-20T02:17:02.972Z,10.8
2019-04-20T02:20:58.093Z,7.44
2019-04-20T02:24:40.505Z,5.18
2019-04-20T02:28:25.747Z,3.86
2019-04-20T02:32:40.776Z,4.59
2019-04-20T02:37:14.163Z,6.19
2019-04-20T02:41:45.000Z,4.34
2019-04-20T02:45:52.848Z,8.44
2019-04-20T02:54:06.190Z,6.47
2019-04-20T02:58:20.511Z,3.85
2019-04-20T03:00:42.653Z,4.55
2019-04-20T03:04:35.103Z,4.65
2019-04-20T03:08:26.235Z,2.69
2019-04-20T03:12:38.376Z,3.7
2019-04-20T03:16:37.229Z,5.29
2019-04-20T03:20:43.447Z,4.35
2019-04-20T03:24:50.119Z,3.86
2019-04-20T03:29:01.830Z,2.75
2019-04-20T03:33:24.587Z,3.89
2019-04-20T03:37:36.992Z,2.94
2019-04-20T03:41:25.472Z,3.15
2019-04-20T03:45:07.677Z,4.81
2019-04-20T03:48:54.649Z,4.6
2019-04-20T03:53:05.812Z,2.05
2019-04-20T03:57:17.004Z,1.89
2019-04-20T04:01:35.880Z,3.46
2019-04-20T04:06:20.671Z,4.12
2019-04-20T04:10:09.815Z,4.56
2019-04-20T04:13:50.646Z,2.38
2019-04-20T04:17:26.962Z,2.4
2019-04-20T04:21:08.445Z,4.05
2019-04-20T04:24:54.302Z,2.71
2019-04-20T04:28:53.237Z,2.16
2019-04-20T04:33:25.052Z,3.56
2019-04-20T04:37:24.329Z,1.83
2019-04-20T04:41:26.753Z,2.88
2019-04-20T04:45:09.512Z,4.54
2019-04-20T04:48:45.685Z,3.56
2019-04-20T04:52:27.808Z,5.42
2019-04-20T04:56:11.729Z,4.22
2019-04-20T04:59:46.648Z,3.3
2019-04-20T05:00:22.677Z,6.04
2019-04-20T05:04:23.322Z,6.85
2019-04-20T05:08:18.732Z,2.62
2019-04-20T05:12:03.852Z,3.3
2019-04-20T05:19:29.777Z,4.33
2019-04-20T05:23:28.085Z,3.42
2019-04-20T05:27:56.027Z,5.04
2019-04-20T05:31:45.024Z,2.53
2019-04-20T05:35:35.423Z,3.03
2019-04-20T05:39:32.362Z,3.21
2019-04-20T05:43:45.835Z,2.08
2019-04-20T05:47:42.855Z,5.04
2019-04-20T05:51:38.288Z,3.75
2019-04-20T05:55:41.661Z,4.36
2019-04-20T05:59:50.964Z,3.26
2019-04-20T06:03:38.231Z,2.02
2019-04-20T06:07:34.772Z,6.56
2019-04-20T06:11:53.573Z,4.25
2019-04-20T06:16:03.860Z,4.66
2019-04-20T06:20:12.643Z,4.38
2019-04-20T06:24:32.995Z,7
2019-04-20T06:28:33.762Z,7.06
2019-04-20T06:34:48.481Z,4.96
2019-04-20T06:39:07.970Z,7.83
2019-04-20T06:43:05.269Z,4.36
2019-04-20T06:50:48.277Z,7.2
2019-04-20T06:55:12.787Z,3.41
2019-04-20T06:59:21.481Z,8
2019-04-20T07:00:37.708Z,8.79
2019-04-20T07:08:40.875Z,7.01
2019-04-20T07:12:40.021Z,5.04
2019-04-20T07:16:43.266Z,2.94
2019-04-20T07:20:59.307Z,3.44
2019-04-20T07:24:56.656Z,6.77
2019-04-20T07:29:05.055Z,5.69
2019-04-20T07:33:04.242Z,3.59
2019-04-20T07:37:43.206Z,5.59
2019-04-20T07:42:00.575Z,6.76
2019-04-20T07:46:10.460Z,6.43
2019-04-20T07:50:09.004Z,4.57
2019-04-20T07:54:16.713Z,5.22
2019-04-20T07:58:18.105Z,2.85
2019-04-20T08:02:32.150Z,3.59
2019-04-20T08:06:26.364Z,6.28
2019-04-20T08:10:09.337Z,4.65
2019-04-20T08:14:07.328Z,7.6
2019-04-20T08:18:08.956Z,7.32
2019-04-20T08:22:07.665Z,5.61
2019-04-20T08:26:00.426Z,7.62
2019-04-20T08:29:55.435Z,6.3
2019-04-20T08:34:04.728Z,8.25
2019-04-20T08:38:26.732Z,4.51
2019-04-20T08:43:00.462Z,8.56
2019-04-20T08:47:06.097Z,3.79
2019-04-20T08:51:03.623Z,4.48
2019-04-20T08:55:05.004Z,4.36
2019-04-20T08:58:45.974Z,6.08
2019-04-20T09:00:24.588Z,7.32
2019-04-20T09:04:09.747Z,7.65
2019-04-20T09:07:53.569Z,2.36
2019-04-20T09:11:49.290Z,6.76
2019-04-20T09:15:32.007Z,5.86
2019-04-20T09:19:07.620Z,5.39
2019-04-20T09:23:13.465Z,4.89
2019-04-20T09:27:12.924Z,5.21
2019-04-20T09:31:12.033Z,5.44
2019-04-20T09:39:15.022Z,4.69
2019-04-20T09:43:54.098Z,4.75
2019-04-20T09:47:32.636Z,9.61
2019-04-20T09:51:27.042Z,10.8
2019-04-20T09:55:23.317Z,6.29
2019-04-20T09:59:22.013Z,3.79
2019-04-20T10:03:04.395Z,5.42
2019-04-20T10:06:35.984Z,4.32
2019-04-20T10:10:18.807Z,5.71
2019-04-20T10:13:54.497Z,4.21
2019-04-20T10:17:27.081Z,4.26
2019-04-20T10:20:59.959Z,5.64
2019-04-20T10:24:30.664Z,4.72
2019-04-20T10:28:01.337Z,5.35
2019-04-20T10:31:35.766Z,5.5
2019-04-20T10:35:14.983Z,5.32
2019-04-20T10:38:46.707Z,5.65
2019-04-20T10:42:18.263Z,5.79
2019-04-20T10:45:48.846Z,5
2019-04-20T10:49:19.370Z,4.62
2019-04-20T10:52:49.985Z,3.64
2019-04-20T10:56:21.331Z,4.56
2019-04-20T10:59:51.945Z,3.89
2019-04-20T11:00:40.027Z,4.41
2019-04-20T11:04:10.575Z,4.22
2019-04-20T11:07:40.868Z,3.49
2019-04-20T11:11:16.381Z,4.42
2019-04-20T11:14:52.633Z,3.54
2019-04-20T11:18:22.693Z,4.02
2019-04-20T11:21:52.700Z,4.08
2019-04-20T11:25:24.189Z,4.04
2019-04-20T11:28:55.766Z,3.75
2019-04-20T11:32:26.278Z,4.19
2019-04-20T11:35:57.061Z,3.89
2019-04-20T11:39:27.369Z,3.55
2019-04-20T11:42:57.579Z,3.99
2019-04-20T11:46:27.705Z,3.11
2019-04-20T11:49:57.789Z,3.71
2019-04-20T11:53:30.459Z,3.64
2019-04-20T11:57:01.615Z,3.56
2019-04-20T12:00:42.292Z,2.24
2019-04-20T12:04:34.015Z,3.64
2019-04-20T12:08:07.045Z,3.99
2019-04-20T12:11:54.940Z,4.24
2019-04-20T12:15:32.194Z,3.04
2019-04-20T12:19:06.062Z,3.95
2019-04-20T12:22:36.511Z,2.7
2019-04-20T12:26:06.873Z,3.34
2019-04-20T12:29:38.387Z,4.06
2019-04-20T12:33:09.465Z,4.99
2019-04-20T12:36:39.676Z,3.29
2019-04-20T12:40:10.524Z,3.05
2019-04-20T12:43:41.481Z,4.73
2019-04-20T12:47:12.030Z,3.33
2019-04-20T12:50:43.632Z,3.44
2019-04-20T12:54:14.538Z,3.54
2019-04-20T12:57:44.835Z,3.46
2019-04-20T13:00:17.495Z,3.29
2019-04-20T13:03:47.738Z,4.67
2019-04-20T13:07:17.808Z,3.86
2019-04-20T13:10:56.196Z,4.41
2019-04-20T13:15:04.570Z,4.64
2019-04-20T13:18:53.084Z,3.69
2019-04-20T13:22:23.172Z,3.74
2019-04-20T13:25:53.299Z,2.36
2019-04-20T13:29:24.744Z,3.99
2019-04-20T13:32:56.146Z,3.31
2019-04-20T13:36:28.493Z,3.59
2019-04-20T13:39:58.710Z,4.07
2019-04-20T13:43:29.975Z,3.85
2019-04-20T13:47:00.877Z,3.74
2019-04-20T13:50:31.618Z,3.91
2019-04-20T13:54:01.863Z,2.61
2019-04-20T13:57:47.091Z,3.64
2019-04-20T14:01:26.460Z,2.73
2019-04-20T14:04:59.073Z,6.14
2019-04-20T14:08:31.508Z,4.32
2019-04-20T14:12:14.158Z,2.71
2019-04-20T14:15:53.393Z,3.59
2019-04-20T14:19:25.015Z,2.36
2019-04-20T14:22:55.284Z,3.99
2019-04-20T14:26:25.345Z,2.96
2019-04-20T14:29:55.505Z,3.28
2019-04-20T14:33:26.585Z,2.69
2019-04-20T14:36:57.112Z,3.35
2019-04-20T14:40:28.325Z,3.1
2019-04-20T14:43:58.428Z,3.21
2019-04-20T14:47:29.750Z,3.58
2019-04-20T14:50:59.949Z,2.99
2019-04-20T14:54:31.691Z,3.11
2019-04-20T14:58:07.983Z,5.15
2019-04-20T15:00:39.882Z,3.67
2019-04-20T15:04:16.400Z,3.51
2019-04-20T15:07:48.868Z,2.94
2019-04-20T15:11:19.167Z,4.16
2019-04-20T15:14:50.370Z,2.8
2019-04-20T15:18:21.838Z,5.42
2019-04-20T15:21:53.597Z,3.8
2019-04-20T15:25:23.756Z,2.79
2019-04-20T15:28:54.518Z,3.19
2019-04-20T15:32:25.065Z,4.41
2019-04-20T15:35:55.849Z,4.38
2019-04-20T15:39:27.248Z,3.56
2019-04-20T15:43:00.975Z,3.61
2019-04-20T15:46:38.273Z,4.28
2019-04-20T15:50:09.665Z,4.79
2019-04-20T15:53:39.926Z,4.66
2019-04-20T15:57:15.048Z,3.04
2019-04-20T16:00:51.348Z,5.93
2019-04-20T16:05:00.644Z,2.54
2019-04-20T16:08:34.378Z,4.56
2019-04-20T16:12:04.727Z,5.31
2019-04-20T16:15:35.829Z,4.4
2019-04-20T16:19:14.651Z,3.55
2019-04-20T16:22:52.260Z,6
2019-04-20T16:26:27.189Z,9.04
2019-04-20T16:29:57.767Z,8.94
2019-04-20T16:33:28.546Z,12.09
2019-04-20T16:36:59.863Z,9.49
2019-04-20T16:40:31.427Z,11.43
2019-04-20T16:44:02.886Z,5.29
2019-04-20T16:47:34.300Z,3.92
2019-04-20T16:51:04.912Z,2.74
2019-04-20T16:54:35.625Z,2.91
2019-04-20T16:58:05.984Z,2.89
2019-04-20T17:00:17.976Z,5.06
2019-04-20T17:03:58.532Z,3.04
2019-04-20T17:07:35.143Z,2.7
2019-04-20T17:11:05.731Z,2.79
2019-04-20T17:14:35.775Z,2.67
2019-04-20T17:18:05.893Z,2.2
2019-04-20T17:21:37.371Z,3.79
2019-04-20T17:25:08.376Z,5.03
2019-04-20T17:31:21.936Z,4.2
2019-04-20T17:35:00.097Z,3
2019-04-20T17:38:43.397Z,3.45
2019-04-20T17:42:33.488Z,4.47
2019-04-20T17:46:28.611Z,2.5
2019-04-20T17:50:25.539Z,3.03
2019-04-20T17:54:15.803Z,3.64
2019-04-20T17:57:47.041Z,2.65
2019-04-20T18:01:42.319Z,2.44
2019-04-20T18:09:23.712Z,2.85
2019-04-20T18:13:14.316Z,3.04
2019-04-20T18:20:54.809Z,2.31
2019-04-20T18:24:51.084Z,2.7
2019-04-20T18:28:56.137Z,2.7
2019-04-20T18:32:35.725Z,2.9
2019-04-20T18:36:05.943Z,2.64
2019-04-20T18:39:42.970Z,2.59
2019-04-20T18:43:23.907Z,2.76
2019-04-20T18:47:16.707Z,2.55
2019-04-20T18:50:59.722Z,2.24
2019-04-20T18:54:34.356Z,2.98
2019-04-20T18:58:09.222Z,3.31
2019-04-20T19:00:26.170Z,2.9
2019-04-20T19:04:01.593Z,2.62
2019-04-20T19:07:39.977Z,2.45
2019-04-20T19:11:19.747Z,4.02
2019-04-20T19:15:03.424Z,2.38
2019-04-20T19:19:04.236Z,3.45
2019-04-20T19:22:40.120Z,2.02
2019-04-20T19:26:16.099Z,1.79
2019-04-20T19:29:55.445Z,3.69
2019-04-20T19:33:54.430Z,2.35
2019-04-20T19:37:50.372Z,3.05
2019-04-20T19:41:40.224Z,2.64
2019-04-20T19:49:04.119Z,3.91
2019-04-20T19:53:11.222Z,3.36
2019-04-20T19:57:05.209Z,2.33
2019-04-20T20:00:49.143Z,3.74
2019-04-20T20:04:21.700Z,1.52
2019-04-20T20:08:01.326Z,2.9
2019-04-20T20:11:40.571Z,2.19
2019-04-20T20:15:22.705Z,3.24
2019-04-20T20:19:05.961Z,3.15
2019-04-20T20:22:44.702Z,1.7
2019-04-20T20:26:27.742Z,3.15
2019-04-20T20:30:09.226Z,2.56
2019-04-20T20:33:56.393Z,3.19
2019-04-20T20:37:43.716Z,2.84
2019-04-20T20:41:28.267Z,2.79
2019-04-20T20:45:17.474Z,2.88
2019-04-20T20:52:50.579Z,1.74
2019-04-20T20:56:33.345Z,3.15
2019-04-20T21:00:31.159Z,2.95
2019-04-20T21:04:07.246Z,2.69
2019-04-20T21:07:38.535Z,3.04
2019-04-20T21:11:13.163Z,2.33
2019-04-20T21:14:49.136Z,2.99
2019-04-20T21:18:37.912Z,2.84
2019-04-20T21:22:33.899Z,2.6
2019-04-20T21:26:21.411Z,3.51
2019-04-20T21:29:58.150Z,3.12
2019-04-20T21:33:32.752Z,4.45
2019-04-20T21:37:12.189Z,3.01
2019-04-20T21:40:49.248Z,2.8
2019-04-20T21:44:25.224Z,1.84
2019-04-20T21:48:01.344Z,1.8
2019-04-20T21:51:49.251Z,3.46
2019-04-20T21:55:22.034Z,4.86
2019-04-20T21:58:58.579Z,3.09
2019-04-20T22:02:37.708Z,2.49
2019-04-20T22:06:14.090Z,2.89
2019-04-20T22:09:46.711Z,2.83
2019-04-20T22:13:28.168Z,2.95
2019-04-20T22:17:05.220Z,3.08
2019-04-20T22:20:48.297Z,3.44
2019-04-20T22:24:43.774Z,2.66
2019-04-20T22:28:26.519Z,3.31
2019-04-20T22:32:00.470Z,3.04
2019-04-20T22:39:23.524Z,3.14
2019-04-20T22:43:01.964Z,3.56
2019-04-20T22:46:35.125Z,3.41
2019-04-20T22:50:23.667Z,3.74
2019-04-20T22:54:17.300Z,2.75
2019-04-20T22:58:03.326Z,2.44
2019-04-20T23:00:29.674Z,2.99
2019-04-20T23:04:08.639Z,3.89
2019-04-20T23:07:38.987Z,2.58
2019-04-20T23:11:14.826Z,1.62
2019-04-20T23:14:47.944Z,3.49
2019-04-20T23:18:18.211Z,2.92
2019-04-20T23:21:55.787Z,3.29
2019-04-20T23:25:29.661Z,3.54
2019-04-20T23:29:02.504Z,2.76
2019-04-20T23:32:33.844Z,3.33
2019-04-20T23:36:05.062Z,3.76
2019-04-20T23:39:40.946Z,3.27
2019-04-20T23:43:25.391Z,2.96
2019-04-20T23:47:13.112Z,2.45
2019-04-20T23:50:54.450Z,3.91
2019-04-20T23:54:50.521Z,3.15
2019-04-20T23:58:24.355Z,3.49
